Time;durP1;ratioP1;P1;durP2;ratioP2;P2;SDS_P1;SDS_P2;PMS_P1;PMS_P2;Temp;Humidity;BMP_temperature;BMP_pressure;BME280_temperature;BME280_humidity;BME280_pressure;Samples;Min_cycle;Max_cycle;Signal;HPM_P1;HPM_P2
2022/08/06 00:01:57;;;;;;;1.70;1.60;;;;;;;24.94;42.10;100306.13;4182161;28;20323;-65
2022/08/06 00:03:59;;;;;;;2.72;1.73;;;;;;;25.79;40.83;100295.44;4186272;28;20231;-64
2022/08/06 00:06:01;;;;;;;3.40;1.70;;;;;;;25.91;40.60;100285.31;4191127;28;20708;-62
2022/08/06 00:08:03;;;;;;;4.55;1.95;;;;;;;25.52;41.18;100301.53;4189796;28;20262;-65
2022/08/06 00:10:07;;;;;;;2.80;1.67;;;;;;;25.22;41.98;100290.88;4188213;28;20486;-62
2022/08/06 00:12:11;;;;;;;2.00;1.80;;;;;;;24.92;42.24;100304.69;4187682;28;20235;-62
2022/08/06 00:14:15;;;;;;;2.08;1.75;;;;;;;25.73;41.07;100286.38;4188769;28;20280;-65
2022/08/06 00:16:17;;;;;;;2.83;1.90;;;;;;;25.05;42.19;100297.13;4187894;28;20254;-63
2022/08/06 00:18:39;;;;;;;3.08;2.15;;;;;;;24.71;42.49;100304.25;4189497;28;20782;-64
2022/08/06 00:20:41;;;;;;;3.20;2.13;;;;;;;25.44;41.32;100290.22;4188088;28;20289;-64
2022/08/06 00:22:43;;;;;;;2.00;1.80;;;;;;;25.56;41.43;100280.06;4188901;28;20514;-63
2022/08/06 00:24:45;;;;;;;4.00;2.20;;;;;;;25.29;41.88;100290.72;4187248;28;20235;-64
2022/08/06 00:26:47;;;;;;;2.42;1.70;;;;;;;25.50;41.52;100302.84;4186677;28;20293;-64
2022/08/06 00:29:07;;;;;;;2.70;1.70;;;;;;;25.27;41.58;100299.13;4184925;28;20227;-63
2022/08/06 00:31:17;;;;;;;2.13;1.90;;;;;;;24.77;42.40;100307.97;4189038;28;20234;-64
2022/08/06 00:33:20;;;;;;;1.90;1.70;;;;;;;25.18;41.90;100289.72;4187264;28;20234;-63
2022/08/06 00:35:23;;;;;;;3.00;1.90;;;;;;;25.36;41.54;100292.25;4189342;28;20231;-64
2022/08/06 00:37:31;;;;;;;1.70;1.60;;;;;;;25.19;41.80;100296.81;4189435;28;20318;-64
2022/08/06 00:39:53;;;;;;;4.60;1.90;;;;;;;25.80;40.91;100302.53;4185901;28;20259;-64
2022/08/06 00:41:55;;;;;;;3.58;1.98;;;;;;;24.08;43.52;100322.13;4186464;28;20235;-64
2022/08/06 00:43:58;;;;;;;3.58;1.80;;;;;;;24.85;42.23;100302.13;4185349;28;20239;-64
2022/08/06 00:46:04;;;;;;;3.13;2.10;;;;;;;24.71;42.74;100311.59;4188766;28;20268;-63
2022/08/06 00:48:06;;;;;;;3.08;1.92;;;;;;;24.81;42.69;100301.78;4189426;28;20754;-64
2022/08/06 00:50:08;;;;;;;5.93;1.90;;;;;;;24.84;42.18;100314.09;4186062;28;20288;-64
2022/08/06 00:52:10;;;;;;;1.75;1.60;;;;;;;24.53;42.91;100307.97;4189386;28;20243;-64
2022/08/06 00:54:20;;;;;;;7.57;2.60;;;;;;;25.03;42.36;100304.66;4187306;28;20317;-64
2022/08/06 00:56:36;;;;;;;3.30;2.30;;;;;;;24.93;41.99;100309.91;4184725;28;20227;-64
2022/08/06 00:58:42;;;;;;;3.63;2.13;;;;;;;24.95;42.06;100307.78;4187464;28;20235;-64
2022/08/06 01:00:44;;;;;;;4.72;2.00;;;;;;;25.44;41.73;100303.81;4185368;28;20223;-64
2022/08/06 01:02:52;;;;;;;4.47;1.90;;;;;;;24.13;43.42;100330.41;4189178;28;20668;-64
2022/08/06 01:04:54;;;;;;;4.28;2.00;;;;;;;24.83;42.56;100306.97;4188443;28;20307;-64
2022/08/06 01:07:07;;;;;;;2.63;2.03;;;;;;;24.92;42.51;100300.13;4186012;28;20264;-63
2022/08/06 01:09:10;;;;;;;3.75;2.30;;;;;;;25.00;42.47;100307.03;4187054;28;20227;-63
2022/08/06 01:11:12;;;;;;;5.75;2.20;;;;;;;24.35;43.01;100311.66;4189164;28;20296;-64
2022/08/06 01:13:14;;;;;;;4.03;2.10;;;;;;;25.09;41.88;100302.03;4185916;28;20227;-63
2022/08/06 01:15:39;;;;;;;2.30;2.00;;;;;;;24.41;42.64;100315.28;4188181;28;20262;-63
2022/08/06 01:18:08;;;;;;;2.83;2.17;;;;;;;25.04;42.06;100311.78;4185454;28;20257;-64
2022/08/06 01:20:22;;;;;;;2.13;1.92;;;;;;;24.73;42.74;100298.59;4186614;28;20227;-63
2022/08/06 01:23:07;;;;;;;4.43;2.50;;;;;;;24.90;42.26;100307.66;4189607;28;20373;-63
2022/08/06 01:25:23;;;;;;;3.35;2.00;;;;;;;24.48;43.06;100308.69;4185872;28;20269;-64
2022/08/06 01:27:50;;;;;;;2.13;1.92;;;;;;;24.92;42.27;100291.94;4186274;28;20887;-64
2022/08/06 01:29:56;;;;;;;3.75;2.30;;;;;;;24.21;43.35;100310.22;4186350;28;20239;-63
2022/08/06 01:32:09;;;;;;;3.33;2.10;;;;;;;23.79;44.34;100305.69;4186910;28;20773;-63
2022/08/06 01:34:20;;;;;;;4.40;2.42;;;;;;;24.19;43.56;100286.00;4186711;28;20282;-64
2022/08/06 01:36:51;;;;;;;3.15;1.88;;;;;;;23.81;43.97;100311.69;4187087;28;20239;-62
2022/08/06 01:38:58;;;;;;;2.17;1.90;;;;;;;23.16;45.12;100293.41;4184673;28;20231;-63
2022/08/06 01:41:06;;;;;;;6.35;2.30;;;;;;;23.22;45.08;100291.69;4185001;28;20631;-64
2022/08/06 01:43:13;;;;;;;5.20;2.33;;;;;;;23.77;44.12;100291.50;4183232;28;20289;-63
2022/08/06 01:45:38;;;;;;;5.37;2.50;;;;;;;23.51;44.47;100277.25;4185763;28;20829;-63
2022/08/06 01:48:00;;;;;;;2.73;2.53;;;;;;;23.56;43.80;100290.16;4184491;28;20230;-63
2022/08/06 01:50:08;;;;;;;3.60;2.45;;;;;;;23.27;44.80;100283.69;4186719;28;20251;-63
2022/08/06 01:52:17;;;;;;;3.33;1.90;;;;;;;23.43;44.56;100277.59;4187502;28;20222;-64
2022/08/06 01:54:36;;;;;;;3.92;2.20;;;;;;;22.72;45.34;100301.66;4183964;28;20246;-63
2022/08/06 01:56:41;;;;;;;2.92;1.98;;;;;;;22.78;45.11;100297.22;4186115;28;20248;-64
2022/08/06 01:58:59;;;;;;;3.55;2.17;;;;;;;23.78;43.56;100282.28;4186306;28;20238;-62
2022/08/06 02:01:10;;;;;;;3.38;2.00;;;;;;;22.99;45.08;100296.75;4185943;28;20231;-62
2022/08/06 02:03:18;;;;;;;2.80;2.20;;;;;;;23.49;44.41;100295.66;4187097;28;20322;-63
2022/08/06 02:05:24;;;;;;;2.83;2.10;;;;;;;22.42;45.80;100310.53;4188248;28;20227;-63
2022/08/06 02:07:36;;;;;;;3.78;2.53;;;;;;;22.61;45.67;100300.53;4184784;28;20231;-64
2022/08/06 02:10:01;;;;;;;3.50;2.10;;;;;;;23.28;44.38;100297.03;4182654;28;20690;-64
2022/08/06 02:12:09;;;;;;;3.88;2.00;;;;;;;22.36;45.65;100321.44;4188918;28;20228;-63
2022/08/06 02:14:14;;;;;;;3.60;1.80;;;;;;;23.44;44.20;100292.81;4184956;28;20617;-63
2022/08/06 02:16:20;;;;;;;2.40;2.20;;;;;;;23.34;44.36;100287.13;4185404;28;20313;-63
2022/08/06 02:18:32;;;;;;;3.57;1.87;;;;;;;23.46;44.11;100301.53;4187256;28;20239;-63
2022/08/06 02:20:45;;;;;;;3.00;1.92;;;;;;;23.84;43.65;100294.09;4187912;28;20325;-63
2022/08/06 02:22:56;;;;;;;2.10;2.00;;;;;;;23.49;44.02;100301.09;4185549;28;20238;-63
2022/08/06 02:25:03;;;;;;;3.30;2.33;;;;;;;23.11;44.53;100310.38;4186451;28;20310;-64
2022/08/06 02:27:23;;;;;;;2.53;2.00;;;;;;;22.23;46.03;100331.28;4186323;28;20232;-62
2022/08/06 02:29:45;;;;;;;3.80;2.00;;;;;;;23.57;44.02;100298.06;4186823;28;20235;-63
2022/08/06 02:32:08;;;;;;;3.65;2.38;;;;;;;23.82;43.23;100309.81;4181593;28;20259;-64
2022/08/06 02:34:09;;;;;;;3.47;2.10;;;;;;;23.70;43.64;100320.63;4185583;28;20223;-63
2022/08/06 02:36:52;;;;;;;3.23;1.80;;;;;;;24.07;42.92;100315.84;4185597;28;20258;-63
2022/08/06 02:39:06;;;;;;;2.97;1.93;;;;;;;24.00;42.94;100323.28;4191228;28;20257;-63
2022/08/06 02:41:28;;;;;;;3.23;1.90;;;;;;;23.12;44.74;100322.88;4184100;28;20316;-63
2022/08/06 02:43:40;;;;;;;3.00;2.03;;;;;;;24.09;43.28;100324.63;4180455;28;20270;-64
2022/08/06 02:46:08;;;;;;;4.20;2.17;;;;;;;24.41;42.45;100334.31;4186554;28;20234;-63
2022/08/06 02:48:44;;;;;;;4.40;1.90;;;;;;;23.72;43.48;100337.53;4186086;28;20223;-62
2022/08/06 02:50:50;;;;;;;5.83;1.90;;;;;;;23.70;43.24;100336.94;4183881;28;20871;-63
2022/08/06 02:53:10;;;;;;;2.30;2.10;;;;;;;24.37;42.39;100323.09;4185254;28;20219;-63
2022/08/06 02:55:35;;;;;;;2.47;2.07;;;;;;;23.49;43.98;100343.69;4186324;28;20749;-63
2022/08/06 02:57:41;;;;;;;3.17;1.90;;;;;;;23.36;44.12;100331.13;4184687;28;20227;-63
2022/08/06 02:59:59;;;;;;;2.37;1.80;;;;;;;23.19;44.29;100345.31;4183457;28;20266;-63
2022/08/06 03:02:06;;;;;;;4.13;2.10;;;;;;;23.24;44.14;100336.50;4187024;28;20226;-63
2022/08/06 03:04:14;;;;;;;2.90;1.90;;;;;;;23.17;44.26;100335.78;4186007;28;20242;-63
2022/08/06 03:06:19;;;;;;;3.10;2.07;;;;;;;23.45;43.70;100346.03;4185325;28;20760;-63
2022/08/06 03:08:24;;;;;;;1.97;1.87;;;;;;;23.32;43.86;100338.09;4188435;28;20245;-63
2022/08/06 03:10:29;;;;;;;2.67;1.97;;;;;;;22.71;44.53;100348.81;4186529;28;20284;-62
2022/08/06 03:12:32;;;;;;;3.70;2.23;;;;;;;22.92;44.26;100346.69;4184534;28;20246;-64
2022/08/06 03:14:37;;;;;;;3.10;2.13;;;;;;;23.18;43.97;100340.13;4186316;28;20782;-64
2022/08/06 03:17:01;;;;;;;4.30;2.10;;;;;;;22.69;45.04;100334.63;4180914;28;20254;-63
2022/08/06 03:19:05;;;;;;;2.57;2.10;;;;;;;23.55;43.54;100329.19;4187471;28;20226;-63
2022/08/06 03:21:29;;;;;;;2.57;1.93;;;;;;;22.89;44.52;100328.97;4186355;28;20259;-62
2022/08/06 03:23:38;;;;;;;3.20;2.30;;;;;;;22.89;44.19;100337.09;4181946;28;21016;-63
2022/08/06 03:25:43;;;;;;;2.37;1.90;;;;;;;23.57;42.80;100348.84;4185692;28;20231;-63
2022/08/06 03:27:50;;;;;;;2.27;2.07;;;;;;;23.15;43.73;100346.84;4188497;28;20231;-63
2022/08/06 03:29:59;;;;;;;3.97;2.27;;;;;;;22.51;44.88;100356.28;4184559;28;20226;-63
2022/08/06 03:32:04;;;;;;;2.60;2.03;;;;;;;23.10;43.96;100345.88;4185290;28;20236;-64
2022/08/06 03:34:27;;;;;;;2.93;1.93;;;;;;;22.90;44.36;100344.19;4187459;28;20314;-64
2022/08/06 03:36:30;;;;;;;2.63;2.20;;;;;;;22.35;45.16;100349.56;4185122;28;20607;-64
2022/08/06 03:38:38;;;;;;;3.50;2.10;;;;;;;22.88;44.27;100342.75;4185444;28;20258;-63
2022/08/06 03:40:44;;;;;;;2.20;2.00;;;;;;;22.25;45.24;100361.72;4187018;28;20296;-64
2022/08/06 03:42:49;;;;;;;4.43;1.93;;;;;;;23.24;43.37;100349.25;4180925;28;20231;-63
2022/08/06 03:44:53;;;;;;;2.93;2.37;;;;;;;22.02;45.30;100366.91;4186536;28;20306;-63
2022/08/06 03:47:09;;;;;;;4.53;1.90;;;;;;;23.16;43.65;100339.53;4189245;28;20227;-62
2022/08/06 03:49:23;;;;;;;1.97;1.87;;;;;;;22.58;44.20;100365.19;4189122;28;21045;-63
2022/08/06 03:51:44;;;;;;;2.67;1.97;;;;;;;22.16;45.01;100357.63;4186172;28;20220;-63
2022/08/06 03:53:57;;;;;;;4.10;2.13;;;;;;;22.52;44.42;100350.66;4188932;28;20971;-63
2022/08/06 03:56:02;;;;;;;2.57;1.97;;;;;;;22.68;44.04;100356.56;4185713;28;20776;-63
2022/08/06 03:58:08;;;;;;;3.67;2.20;;;;;;;22.03;44.89;100373.97;4188816;28;20227;-64
2022/08/06 04:00:14;;;;;;;2.87;2.10;;;;;;;22.03;45.08;100357.72;4187602;28;20232;-64
2022/08/06 04:02:23;;;;;;;2.10;1.90;;;;;;;22.38;44.45;100349.94;4185272;28;20235;-64
2022/08/06 04:04:46;;;;;;;4.40;2.37;;;;;;;21.41;45.67;100389.94;4189413;28;21200;-64
2022/08/06 04:06:50;;;;;;;2.53;1.90;;;;;;;21.84;45.05;100367.66;4186165;28;20243;-63
2022/08/06 04:08:53;;;;;;;4.17;2.07;;;;;;;21.96;44.90;100354.25;4191090;28;20734;-64
2022/08/06 04:10:56;;;;;;;3.13;2.23;;;;;;;22.45;44.08;100352.59;4188564;28;20227;-62
2022/08/06 04:13:00;;;;;;;3.43;1.90;;;;;;;21.83;45.15;100364.13;4182691;28;20231;-64
2022/08/06 04:15:22;;;;;;;2.47;1.90;;;;;;;22.32;44.13;100360.84;4190215;28;20928;-63
2022/08/06 04:17:26;;;;;;;2.53;1.90;;;;;;;21.75;44.82;100377.06;4189856;28;20292;-62
2022/08/06 04:19:34;;;;;;;3.73;1.60;;;;;;;22.15;43.91;100374.91;4188653;28;20241;-63
2022/08/06 04:21:44;;;;;;;4.20;1.70;;;;;;;22.09;44.25;100368.50;4177636;28;20235;-63
2022/08/06 04:24:06;;;;;;;4.10;2.10;;;;;;;21.35;45.28;100378.09;4187129;28;20686;-63
2022/08/06 04:26:13;;;;;;;4.47;1.87;;;;;;;21.38;45.03;100385.78;4186729;28;20235;-63
2022/08/06 04:28:18;;;;;;;4.03;1.83;;;;;;;21.20;44.99;100388.38;4188900;28;20242;-63
2022/08/06 04:30:26;;;;;;;2.97;1.90;;;;;;;20.46;45.99;100399.28;4185811;28;20228;-63
2022/08/06 04:32:30;;;;;;;4.30;1.97;;;;;;;21.49;44.67;100368.88;4188302;28;20230;-63
2022/08/06 04:34:36;;;;;;;3.13;1.63;;;;;;;20.91;45.61;100375.13;4186098;28;20284;-63
2022/08/06 04:37:00;;;;;;;3.20;2.10;;;;;;;20.63;45.69;100383.47;4187001;28;20623;-61
2022/08/06 04:39:06;;;;;;;2.57;2.07;;;;;;;21.92;43.54;100370.09;4186269;28;20674;-64
2022/08/06 04:41:15;;;;;;;1.90;1.70;;;;;;;21.16;44.14;100402.31;4185891;28;20246;-63
2022/08/06 04:43:18;;;;;;;2.00;1.57;;;;;;;20.85;45.45;100392.16;4188611;28;20782;-64
2022/08/06 04:45:21;;;;;;;2.27;1.90;;;;;;;21.55;44.32;100378.81;4188209;28;20330;-63
2022/08/06 04:47:43;;;;;;;2.37;1.50;;;;;;;20.79;45.42;100385.75;4187741;28;20376;-63
2022/08/06 04:49:48;;;;;;;4.13;1.90;;;;;;;21.63;43.68;100398.59;4190091;28;20593;-63
2022/08/06 04:52:03;;;;;;;1.90;1.77;;;;;;;21.59;44.03;100392.75;4185693;28;20292;-63
2022/08/06 04:54:25;;;;;;;4.70;1.90;;;;;;;21.10;44.25;100415.84;4187934;28;20711;-62
2022/08/06 04:56:30;;;;;;;2.17;1.73;;;;;;;21.55;43.60;100403.19;4187926;28;20265;-62
2022/08/06 04:58:38;;;;;;;2.10;1.50;;;;;;;21.09;44.39;100415.03;4192660;28;20253;-63
2022/08/06 05:00:43;;;;;;;1.50;1.40;;;;;;;21.77;43.10;100404.78;4189084;28;20236;-62
2022/08/06 05:03:05;;;;;;;1.90;1.73;;;;;;;20.91;44.27;100420.25;4186939;28;20319;-64
2022/08/06 05:05:08;;;;;;;2.33;1.70;;;;;;;20.61;44.55;100437.72;4186711;28;20223;-64
2022/08/06 05:07:18;;;;;;;2.70;1.50;;;;;;;21.65;43.21;100408.16;4188836;28;20841;-65
2022/08/06 05:09:26;;;;;;;1.70;1.60;;;;;;;21.67;42.95;100422.31;4188135;28;20296;-64
2022/08/06 05:11:51;;;;;;;2.50;1.30;;;;;;;20.93;43.79;100429.78;4177630;28;20318;-62
2022/08/06 05:14:02;;;;;;;3.13;1.57;;;;;;;21.69;42.71;100427.50;4180002;28;20815;-64
2022/08/06 05:16:11;;;;;;;2.40;1.60;;;;;;;21.09;43.75;100439.38;4183086;28;20257;-63
2022/08/06 05:18:29;;;;;;;1.50;1.40;;;;;;;20.92;43.81;100440.81;4187881;28;20901;-63
2022/08/06 05:20:54;;;;;;;3.53;1.50;;;;;;;21.36;43.33;100437.41;4186733;28;20254;-63
2022/08/06 05:23:19;;;;;;;1.63;1.47;;;;;;;21.82;42.63;100438.25;4185136;28;20235;-62
2022/08/06 05:25:21;;;;;;;2.17;1.70;;;;;;;21.09;43.17;100457.44;4184456;28;20285;-63
2022/08/06 05:27:28;;;;;;;2.50;2.00;;;;;;;20.44;44.30;100461.63;4187679;28;20262;-64
2022/08/06 05:29:50;;;;;;;4.10;1.80;;;;;;;20.87;43.97;100444.16;4188684;28;20228;-63
2022/08/06 05:31:59;;;;;;;4.07;1.70;;;;;;;20.99;43.81;100438.97;4185152;28;20327;-64
2022/08/06 05:34:04;;;;;;;1.70;1.30;;;;;;;21.37;43.30;100440.94;4184067;28;20231;-62
2022/08/06 05:36:11;;;;;;;3.33;1.67;;;;;;;21.89;42.46;100443.63;4188305;28;20759;-62
2022/08/06 05:38:20;;;;;;;2.53;1.50;;;;;;;21.88;42.11;100455.50;4187392;28;20238;-62
2022/08/06 05:40:35;;;;;;;2.07;1.57;;;;;;;21.47;42.68;100462.94;4186571;28;20234;-63
2022/08/06 05:42:57;;;;;;;2.60;1.50;;;;;;;21.91;42.34;100458.59;4189040;28;20262;-64
2022/08/06 05:45:00;;;;;;;1.83;1.60;;;;;;;22.03;42.00;100449.78;4187823;28;20238;-63
2022/08/06 05:47:05;;;;;;;1.57;1.43;;;;;;;21.61;42.72;100454.78;4186142;28;20304;-64
2022/08/06 05:49:31;;;;;;;2.73;1.80;;;;;;;22.12;41.81;100447.66;4188001;28;20227;-65
2022/08/06 05:52:05;;;;;;;1.70;1.60;;;;;;;20.93;43.60;100469.50;4185541;28;20265;-63
2022/08/06 05:54:20;;;;;;;2.30;1.40;;;;;;;21.32;42.68;100454.25;4172684;28;20239;-64
2022/08/06 05:56:28;;;;;;;2.50;1.30;;;;;;;21.01;43.28;100460.41;4189800;28;20314;-62
2022/08/06 05:58:52;;;;;;;2.90;1.77;;;;;;;21.54;43.18;100455.66;4186646;28;20239;-63
2022/08/06 06:00:59;;;;;;;1.77;1.50;;;;;;;21.30;42.81;100470.69;4184076;28;20227;-64
2022/08/06 06:03:04;;;;;;;4.43;1.50;;;;;;;21.08;43.19;100470.13;4188099;28;21018;-62
2022/08/06 06:05:08;;;;;;;3.13;1.60;;;;;;;20.80;43.62;100481.16;4186286;28;20719;-63
2022/08/06 06:07:30;;;;;;;1.83;1.63;;;;;;;20.95;43.72;100464.75;4186650;28;20231;-63
2022/08/06 06:09:53;;;;;;;2.20;1.60;;;;;;;21.61;42.74;100469.13;4186072;28;20228;-63
2022/08/06 06:12:05;;;;;;;2.13;1.67;;;;;;;21.55;42.42;100478.94;4186992;28;20306;-63
2022/08/06 06:14:25;;;;;;;2.50;1.70;;;;;;;21.75;42.70;100467.25;4173710;28;20728;-64
2022/08/06 06:17:01;;;;;;;2.17;1.80;;;;;;;22.19;42.14;100467.41;4194381;28;20259;-63
2022/08/06 06:19:20;;;;;;;4.30;1.67;;;;;;;21.67;43.09;100462.91;4184520;28;20722;-62
2022/08/06 06:21:34;;;;;;;2.13;1.73;;;;;;;22.00;42.64;100475.44;4186836;28;20349;-63
2022/08/06 06:23:46;;;;;;;2.13;1.60;;;;;;;21.28;43.66;100478.22;4184613;28;20270;-64
2022/08/06 06:26:20;;;;;;;2.50;1.53;;;;;;;21.96;43.00;100471.50;4186163;28;20936;-63
2022/08/06 06:29:01;;;;;;;2.90;1.50;;;;;;;22.86;41.71;100462.31;4185891;28;20235;-64
2022/08/06 06:31:24;;;;;;;2.50;2.30;;;;;;;21.82;43.09;100478.84;4182143;28;20231;-63
2022/08/06 06:34:18;;;;;;;2.20;1.50;;;;;;;22.35;42.39;100491.25;4185776;28;20884;-63
2022/08/06 06:36:31;;;;;;;2.57;1.67;;;;;;;21.22;43.65;100514.19;4175579;28;20322;-63
2022/08/06 06:38:43;;;;;;;2.23;1.40;;;;;;;21.68;43.42;100491.63;4185870;28;20238;-63
2022/08/06 06:41:03;;;;;;;1.90;1.60;;;;;;;22.05;43.25;100488.31;4187246;28;20231;-64
2022/08/06 06:43:48;;;;;;;2.30;1.47;;;;;;;22.38;42.87;100479.19;4185986;28;20583;-63
2022/08/06 06:46:06;;;;;;;2.50;1.60;;;;;;;22.41;42.99;100484.97;4184728;28;20223;-64
2022/08/06 06:48:34;;;;;;;4.60;1.60;;;;;;;22.06;43.24;100501.63;4186975;28;20322;-66
2022/08/06 06:50:42;;;;;;;5.40;1.50;;;;;;;22.30;43.08;100491.09;4185536;28;20238;-62
2022/08/06 06:52:49;;;;;;;2.10;1.40;;;;;;;22.84;42.86;100492.34;4186019;28;20268;-63
2022/08/06 06:55:02;;;;;;;3.87;1.70;;;;;;;22.86;42.72;100494.00;4185169;28;20242;-63
2022/08/06 06:57:18;;;;;;;4.03;1.60;;;;;;;22.96;42.65;100497.91;4185321;28;20836;-64
2022/08/06 06:59:38;;;;;;;3.33;1.80;;;;;;;22.07;43.76;100522.25;4187811;28;20258;-63
2022/08/06 07:02:03;;;;;;;2.80;1.70;;;;;;;22.52;43.24;100502.41;4185957;28;20885;-63
2022/08/06 07:04:16;;;;;;;2.00;1.53;;;;;;;23.07;42.69;100490.09;4186814;28;20295;-64
2022/08/06 07:06:20;;;;;;;1.70;1.60;;;;;;;22.72;42.79;100498.72;4185627;28;20299;-65
2022/08/06 07:08:46;;;;;;;3.77;1.80;;;;;;;22.59;43.22;100510.47;4188678;28;20801;-63
2022/08/06 07:10:52;;;;;;;3.63;1.90;;;;;;;22.89;42.92;100507.94;4184339;28;20646;-63
2022/08/06 07:12:58;;;;;;;1.70;1.60;;;;;;;23.20;42.66;100493.47;4185619;28;20258;-62
2022/08/06 07:15:02;;;;;;;3.73;1.70;;;;;;;23.20;42.56;100512.47;4184339;28;20223;-63
2022/08/06 07:17:06;;;;;;;4.50;1.73;;;;;;;23.13;42.46;100525.28;4184504;28;20227;-64
2022/08/06 07:19:29;;;;;;;2.55;1.60;;;;;;;22.74;43.51;100518.28;4188278;28;20323;-62
2022/08/06 07:21:31;;;;;;;4.70;1.95;;;;;;;23.35;42.75;100512.09;4188335;28;20240;-62
2022/08/06 07:23:34;;;;;;;4.82;1.63;;;;;;;23.26;43.04;100515.34;4190704;28;20242;-64
2022/08/06 07:25:57;;;;;;;3.42;1.92;;;;;;;23.35;42.82;100503.13;4186862;28;20321;-65
2022/08/06 07:28:00;;;;;;;2.42;1.88;;;;;;;23.33;42.68;100492.53;4188422;28;20234;-64
2022/08/06 07:30:03;;;;;;;2.93;1.70;;;;;;;22.29;44.37;100516.53;4189154;28;20231;-62
2022/08/06 07:32:10;;;;;;;2.67;1.83;;;;;;;22.38;44.21;100530.66;4187765;28;20276;-64
2022/08/06 07:34:33;;;;;;;2.20;1.60;;;;;;;23.20;43.37;100515.19;4187976;28;20253;-62
2022/08/06 07:36:46;;;;;;;4.10;2.22;;;;;;;23.27;43.43;100504.25;4188904;28;20326;-62
2022/08/06 07:39:02;;;;;;;8.38;2.33;;;;;;;23.44;43.02;100498.25;4191322;28;20227;-62
2022/08/06 07:41:05;;;;;;;2.60;1.80;;;;;;;22.75;44.28;100517.25;4184635;28;20235;-62
2022/08/06 07:43:15;;;;;;;3.08;2.00;;;;;;;23.84;42.36;100495.91;4188376;28;20288;-61
2022/08/06 07:45:30;;;;;;;3.67;2.35;;;;;;;23.78;42.49;100507.66;4190067;28;20311;-62
2022/08/06 07:47:41;;;;;;;6.23;1.70;;;;;;;23.24;43.45;100514.75;4189784;28;20238;-63
2022/08/06 07:49:58;;;;;;;2.17;1.97;;;;;;;23.28;43.06;100527.63;4184606;28;20228;-65
2022/08/06 07:52:04;;;;;;;4.18;1.77;;;;;;;23.23;43.19;100503.03;4188337;28;20344;-64
2022/08/06 07:54:08;;;;;;;2.15;1.70;;;;;;;23.55;42.78;100509.19;4189605;28;20254;-63
2022/08/06 07:56:11;;;;;;;3.22;1.63;;;;;;;23.87;42.19;100508.16;4187795;28;20712;-63
2022/08/06 07:58:16;;;;;;;3.60;1.90;;;;;;;23.76;41.77;100507.88;4189230;28;20238;-62
2022/08/06 08:00:18;;;;;;;2.22;1.67;;;;;;;23.44;42.40;100526.19;4184998;28;20776;-63
2022/08/06 08:02:23;;;;;;;5.40;1.60;;;;;;;24.07;41.95;100516.06;4184563;28;20274;-64
2022/08/06 08:06:55;;;;;;;3.30;1.92;;;;;;;23.32;41.70;100522.59;4189905;28;20730;-62
2022/08/06 08:09:12;;;;;;;2.45;1.80;;;;;;;23.45;41.92;100513.44;4185555;28;20756;-63
2022/08/06 08:11:16;;;;;;;2.47;1.70;;;;;;;23.78;41.80;100513.09;4189704;28;20227;-63
2022/08/06 08:13:23;;;;;;;3.50;1.60;;;;;;;23.97;41.58;100510.34;4186312;28;20285;-63
2022/08/06 08:15:47;;;;;;;1.40;1.30;;;;;;;23.23;41.45;100524.75;4186150;28;20243;-63
2022/08/06 08:17:51;;;;;;;4.70;2.00;;;;;;;23.27;41.55;100536.00;4190613;28;20231;-63
2022/08/06 08:20:09;;;;;;;4.90;2.20;;;;;;;23.75;41.27;100516.25;4187971;28;20294;-63
2022/08/06 08:22:19;;;;;;;3.60;1.52;;;;;;;23.80;40.59;100510.97;4189004;28;20400;-61
2022/08/06 08:24:26;;;;;;;3.50;1.90;;;;;;;23.56;41.25;100520.88;4188874;28;20266;-63
2022/08/06 08:26:29;;;;;;;2.17;1.60;;;;;;;23.24;40.35;100528.31;4190001;28;20243;-63
2022/08/06 08:28:51;;;;;;;5.15;1.70;;;;;;;23.85;39.62;100516.53;4187502;28;20271;-63
2022/08/06 08:30:53;;;;;;;7.40;2.90;;;;;;;23.61;39.76;100531.06;4184132;28;20293;-64
2022/08/06 08:32:55;;;;;;;3.70;1.60;;;;;;;23.44;40.53;100539.78;4188437;28;20876;-63
2022/08/06 08:34:59;;;;;;;3.08;1.50;;;;;;;23.71;39.11;100534.91;4190234;28;20231;-65
2022/08/06 08:37:01;;;;;;;2.80;1.60;;;;;;;23.81;39.21;100536.25;4186327;28;20235;-63
2022/08/06 08:39:18;;;;;;;1.70;1.30;;;;;;;23.44;39.04;100536.25;4185865;28;20292;-63
2022/08/06 08:41:27;;;;;;;2.65;1.50;;;;;;;23.53;38.26;100541.13;4179686;28;20323;-63
2022/08/06 08:43:56;;;;;;;4.93;1.40;;;;;;;23.81;38.70;100536.25;4179530;28;20288;-62
2022/08/06 08:46:03;;;;;;;2.45;1.50;;;;;;;23.90;38.37;100541.13;4181087;28;20235;-62
2022/08/06 08:48:10;;;;;;;1.98;1.80;;;;;;;23.35;38.28;100538.41;4184985;28;20228;-63
2022/08/06 08:50:20;;;;;;;3.95;1.50;;;;;;;24.00;38.08;100528.91;4184193;28;20292;-63
2022/08/06 08:52:33;;;;;;;2.80;1.70;;;;;;;24.10;37.83;100515.59;4188063;28;20239;-64
2022/08/06 08:54:37;;;;;;;3.28;1.83;;;;;;;24.29;37.43;100528.09;4190176;28;20235;-64
2022/08/06 08:56:40;;;;;;;3.58;1.83;;;;;;;23.76;36.84;100532.31;4188308;28;20240;-64
2022/08/06 08:59:03;;;;;;;3.45;1.58;;;;;;;24.01;37.26;100527.81;4187207;28;20719;-63
2022/08/06 09:01:25;;;;;;;4.25;1.60;;;;;;;24.83;36.65;100519.97;4184496;28;20261;-64
2022/08/06 09:03:47;;;;;;;2.63;1.70;;;;;;;24.23;37.77;100526.31;4180294;28;20227;-62
2022/08/06 09:05:52;;;;;;;7.55;1.80;;;;;;;24.60;37.39;100539.75;4188477;28;20243;-63
2022/08/06 09:07:56;;;;;;;2.05;1.50;;;;;;;24.02;36.53;100532.22;4189320;28;20259;-62
2022/08/06 09:10:06;;;;;;;3.50;1.83;;;;;;;24.11;37.22;100519.97;4184721;28;20232;-64
2022/08/06 09:12:12;;;;;;;4.57;1.52;;;;;;;24.83;36.79;100527.28;4188311;28;20260;-64
2022/08/06 09:14:35;;;;;;;5.55;1.77;;;;;;;24.17;37.41;100523.69;4187327;28;20280;-64
2022/08/06 09:16:37;;;;;;;2.00;1.38;;;;;;;24.26;36.23;100525.84;4187894;28;20924;-63
2022/08/06 09:18:51;;;;;;;2.45;1.50;;;;;;;23.95;37.45;100524.16;4184992;28;20318;-63
2022/08/06 09:20:52;;;;;;;4.63;2.15;;;;;;;24.14;37.41;100516.78;4185396;28;20230;-63
2022/08/06 09:22:54;;;;;;;2.97;1.50;;;;;;;24.79;36.08;100520.66;4185556;28;20227;-63
2022/08/06 09:24:56;;;;;;;3.97;1.30;;;;;;;24.30;36.51;100520.78;4188507;28;20223;-62
2022/08/06 09:27:09;;;;;;;3.83;1.60;;;;;;;24.09;36.91;100533.78;4185649;28;20276;-63
2022/08/06 09:29:32;;;;;;;2.10;1.42;;;;;;;24.92;36.49;100517.72;4185329;28;20263;-63
2022/08/06 09:31:36;;;;;;;4.10;1.63;;;;;;;24.73;37.29;100514.22;4184757;28;20251;-63
2022/08/06 09:33:54;;;;;;;2.40;1.58;;;;;;;25.82;36.33;100512.03;4191187;28;20226;-64
2022/08/06 09:36:16;;;;;;;2.95;1.60;;;;;;;25.31;36.94;100531.66;4188095;28;20263;-64
2022/08/06 09:38:32;;;;;;;1.70;1.60;;;;;;;25.44;36.78;100525.13;4186325;28;20249;-63
2022/08/06 09:40:33;;;;;;;2.75;1.40;;;;;;;25.20;36.72;100525.13;4186448;28;20716;-63
2022/08/06 09:42:40;;;;;;;3.38;1.50;;;;;;;24.47;37.65;100523.66;4186381;28;20231;-63
2022/08/06 09:44:41;;;;;;;2.03;1.30;;;;;;;24.33;37.72;100516.75;4189132;28;20284;-63
2022/08/06 09:46:44;;;;;;;5.50;1.70;;;;;;;25.13;37.14;100504.56;4185472;28;20239;-63
2022/08/06 09:49:00;;;;;;;2.35;1.40;;;;;;;25.66;36.44;100495.41;4185852;28;20230;-63
2022/08/06 09:51:22;;;;;;;2.80;1.40;;;;;;;25.78;35.99;100511.69;4188005;28;20262;-62
2022/08/06 09:53:58;;;;;;;5.18;1.80;;;;;;;25.75;35.80;100507.56;4186827;28;20254;-62
2022/08/06 09:56:20;;;;;;;1.85;1.30;;;;;;;24.77;36.57;100514.63;4183728;28;20263;-64
2022/08/06 09:58:37;;;;;;;2.30;1.50;;;;;;;25.73;36.38;100498.81;4186597;28;20227;-62
2022/08/06 10:00:39;;;;;;;5.85;1.45;;;;;;;25.79;35.95;100507.88;4185183;28;20243;-62
2022/08/06 10:02:42;;;;;;;2.40;1.50;;;;;;;25.05;36.24;100514.75;4188161;28;20245;-62
2022/08/06 10:04:52;;;;;;;4.75;1.60;;;;;;;25.90;35.57;100507.03;4187944;28;20239;-63
2022/08/06 10:06:56;;;;;;;2.25;1.50;;;;;;;25.59;35.57;100514.59;4186264;28;20230;-63
2022/08/06 10:09:09;;;;;;;3.47;1.52;;;;;;;26.25;35.05;100495.16;4186217;28;20231;-63
2022/08/06 10:11:33;;;;;;;3.42;1.67;;;;;;;25.40;35.12;100515.81;4188220;28;20230;-63
2022/08/06 10:13:51;;;;;;;2.13;1.38;;;;;;;24.92;35.96;100509.56;4185534;28;20687;-64
2022/08/06 10:16:00;;;;;;;2.30;1.30;;;;;;;25.53;35.13;100509.28;4182545;28;20349;-63